sensor_id;sensor_type;location;lat;lon;timestamp;pressure;altitude;pressure_sealevel;temperature;humidity
62864;BME280;48954;59.950;11.014;2023-03-22T00:01:14;98415.58;;;-0.11;85.21
62864;BME280;48954;59.950;11.014;2023-03-22T00:03:41;98408.27;;;-0.11;85.45
62864;BME280;48954;59.950;11.014;2023-03-22T00:06:07;98404.80;;;-0.12;85.30
62864;BME280;48954;59.950;11.014;2023-03-22T00:08:33;98406.24;;;-0.13;85.55
62864;BME280;48954;59.950;11.014;2023-03-22T00:10:59;98401.05;;;-0.13;85.24
62864;BME280;48954;59.950;11.014;2023-03-22T00:13:26;98403.48;;;-0.13;85.53
62864;BME280;48954;59.950;11.014;2023-03-22T00:15:54;98403.70;;;-0.13;85.64
62864;BME280;48954;59.950;11.014;2023-03-22T00:18:20;98400.70;;;-0.13;85.50
62864;BME280;48954;59.950;11.014;2023-03-22T00:20:55;98399.11;;;-0.12;85.48
62864;BME280;48954;59.950;11.014;2023-03-22T00:23:24;98393.36;;;-0.11;85.60
62864;BME280;48954;59.950;11.014;2023-03-22T00:25:51;98387.88;;;-0.09;85.63
62864;BME280;48954;59.950;11.014;2023-03-22T00:28:18;98383.69;;;-0.08;85.47
62864;BME280;48954;59.950;11.014;2023-03-22T00:30:52;98377.48;;;-0.07;85.60
62864;BME280;48954;59.950;11.014;2023-03-22T00:33:19;98371.41;;;-0.06;85.53
62864;BME280;48954;59.950;11.014;2023-03-22T00:35:50;98369.83;;;-0.05;85.50
62864;BME280;48954;59.950;11.014;2023-03-22T00:38:16;98364.36;;;-0.07;85.56
62864;BME280;48954;59.950;11.014;2023-03-22T00:40:42;98362.01;;;-0.08;85.51
62864;BME280;48954;59.950;11.014;2023-03-22T00:43:08;98359.55;;;-0.09;85.63
62864;BME280;48954;59.950;11.014;2023-03-22T00:45:34;98356.54;;;-0.09;85.96
62864;BME280;48954;59.950;11.014;2023-03-22T00:48:00;98353.58;;;-0.08;85.75
62864;BME280;48954;59.950;11.014;2023-03-22T00:50:26;98348.16;;;-0.08;85.84
62864;BME280;48954;59.950;11.014;2023-03-22T00:52:52;98346.36;;;-0.07;85.77
62864;BME280;48954;59.950;11.014;2023-03-22T00:55:18;98340.83;;;-0.06;85.60
62864;BME280;48954;59.950;11.014;2023-03-22T00:57:45;98334.53;;;-0.06;85.70
62864;BME280;48954;59.950;11.014;2023-03-22T01:00:12;98332.94;;;-0.05;85.75
62864;BME280;48954;59.950;11.014;2023-03-22T01:02:39;98331.50;;;-0.04;85.79
62864;BME280;48954;59.950;11.014;2023-03-22T01:05:06;98324.83;;;-0.03;85.58
62864;BME280;48954;59.950;11.014;2023-03-22T01:07:32;98326.90;;;-0.02;85.55
62864;BME280;48954;59.950;11.014;2023-03-22T01:09:58;98324.79;;;0.00;85.77
62864;BME280;48954;59.950;11.014;2023-03-22T01:12:24;98327.85;;;0.02;85.56
62864;BME280;48954;59.950;11.014;2023-03-22T01:14:50;98322.78;;;0.03;85.79
62864;BME280;48954;59.950;11.014;2023-03-22T01:17:16;98314.52;;;0.02;85.78
62864;BME280;48954;59.950;11.014;2023-03-22T01:19:42;98307.99;;;0.04;85.76
62864;BME280;48954;59.950;11.014;2023-03-22T01:22:08;98303.55;;;0.04;85.74
62864;BME280;48954;59.950;11.014;2023-03-22T01:24:34;98300.10;;;0.05;85.60
62864;BME280;48954;59.950;11.014;2023-03-22T01:27:00;98297.11;;;0.07;85.96
62864;BME280;48954;59.950;11.014;2023-03-22T01:29:27;98290.43;;;0.08;85.66
62864;BME280;48954;59.950;11.014;2023-03-22T01:31:53;98284.44;;;0.09;85.89
62864;BME280;48954;59.950;11.014;2023-03-22T01:34:19;98280.73;;;0.10;85.77
62864;BME280;48954;59.950;11.014;2023-03-22T01:36:45;98271.84;;;0.11;85.78
62864;BME280;48954;59.950;11.014;2023-03-22T01:39:11;98270.44;;;0.11;85.66
62864;BME280;48954;59.950;11.014;2023-03-22T01:41:37;98265.67;;;0.11;85.71
62864;BME280;48954;59.950;11.014;2023-03-22T01:44:18;98259.06;;;0.12;85.73
62864;BME280;48954;59.950;11.014;2023-03-22T01:46:46;98253.14;;;0.12;85.49
62864;BME280;48954;59.950;11.014;2023-03-22T01:51:42;98251.42;;;0.14;85.54
62864;BME280;48954;59.950;11.014;2023-03-22T01:54:16;98241.61;;;0.16;85.62
62864;BME280;48954;59.950;11.014;2023-03-22T01:56:43;98238.46;;;0.17;85.90
62864;BME280;48954;59.950;11.014;2023-03-22T01:59:11;98235.72;;;0.17;85.72
62864;BME280;48954;59.950;11.014;2023-03-22T02:01:39;98232.98;;;0.19;85.79
62864;BME280;48954;59.950;11.014;2023-03-22T02:04:09;98225.05;;;0.19;85.47
62864;BME280;48954;59.950;11.014;2023-03-22T02:06:36;98221.27;;;0.19;85.66
62864;BME280;48954;59.950;11.014;2023-03-22T02:09:04;98218.98;;;0.20;85.50
62864;BME280;48954;59.950;11.014;2023-03-22T02:11:33;98217.92;;;0.21;85.70
62864;BME280;48954;59.950;11.014;2023-03-22T02:14:10;98212.84;;;0.21;85.57
62864;BME280;48954;59.950;11.014;2023-03-22T02:17:08;98208.60;;;0.21;85.64
62864;BME280;48954;59.950;11.014;2023-03-22T02:20:06;98195.25;;;0.20;85.54
62864;BME280;48954;59.950;11.014;2023-03-22T02:30:35;98184.22;;;0.18;85.73
62864;BME280;48954;59.950;11.014;2023-03-22T02:36:04;98182.79;;;0.19;85.82
62864;BME280;48954;59.950;11.014;2023-03-22T02:39:11;98181.90;;;0.18;85.51
62864;BME280;48954;59.950;11.014;2023-03-22T02:42:22;98178.09;;;0.17;85.41
62864;BME280;48954;59.950;11.014;2023-03-22T02:50:06;98178.20;;;0.19;85.88
62864;BME280;48954;59.950;11.014;2023-03-22T02:52:40;98170.66;;;0.19;85.62
62864;BME280;48954;59.950;11.014;2023-03-22T02:55:16;98165.30;;;0.18;85.74
62864;BME280;48954;59.950;11.014;2023-03-22T02:57:54;98161.64;;;0.18;85.90
62864;BME280;48954;59.950;11.014;2023-03-22T03:00:23;98157.77;;;0.17;85.66
62864;BME280;48954;59.950;11.014;2023-03-22T03:02:53;98157.52;;;0.17;85.66
62864;BME280;48954;59.950;11.014;2023-03-22T03:05:23;98159.01;;;0.17;85.89
62864;BME280;48954;59.950;11.014;2023-03-22T03:07:54;98156.42;;;0.17;85.70
62864;BME280;48954;59.950;11.014;2023-03-22T03:10:22;98148.33;;;0.17;85.68
62864;BME280;48954;59.950;11.014;2023-03-22T03:12:49;98143.13;;;0.18;85.85
62864;BME280;48954;59.950;11.014;2023-03-22T03:15:18;98139.98;;;0.19;85.74
62864;BME280;48954;59.950;11.014;2023-03-22T03:17:52;98134.95;;;0.19;85.86
62864;BME280;48954;59.950;11.014;2023-03-22T03:31:49;98124.53;;;0.21;85.67
62864;BME280;48954;59.950;11.014;2023-03-22T03:34:24;98120.65;;;0.20;85.85
62864;BME280;48954;59.950;11.014;2023-03-22T03:36:56;98110.55;;;0.19;85.77
62864;BME280;48954;59.950;11.014;2023-03-22T03:39:28;98108.27;;;0.19;85.70
62864;BME280;48954;59.950;11.014;2023-03-22T03:41:55;98106.98;;;0.20;85.88
62864;BME280;48954;59.950;11.014;2023-03-22T03:44:22;98106.91;;;0.21;85.86
62864;BME280;48954;59.950;11.014;2023-03-22T03:46:50;98104.48;;;0.22;85.78
62864;BME280;48954;59.950;11.014;2023-03-22T03:49:19;98101.40;;;0.22;85.57
62864;BME280;48954;59.950;11.014;2023-03-22T03:51:50;98092.44;;;0.22;85.84
62864;BME280;48954;59.950;11.014;2023-03-22T03:54:16;98088.39;;;0.23;85.59
62864;BME280;48954;59.950;11.014;2023-03-22T03:56:42;98085.50;;;0.22;85.85
62864;BME280;48954;59.950;11.014;2023-03-22T03:59:09;98086.92;;;0.23;85.84
62864;BME280;48954;59.950;11.014;2023-03-22T04:01:35;98084.59;;;0.23;85.77
62864;BME280;48954;59.950;11.014;2023-03-22T04:04:01;98082.54;;;0.23;85.85
62864;BME280;48954;59.950;11.014;2023-03-22T04:06:27;98074.92;;;0.24;86.02
62864;BME280;48954;59.950;11.014;2023-03-22T04:08:53;98073.01;;;0.25;85.80
62864;BME280;48954;59.950;11.014;2023-03-22T04:11:19;98068.71;;;0.26;86.09
62864;BME280;48954;59.950;11.014;2023-03-22T04:13:46;98066.27;;;0.27;85.90
62864;BME280;48954;59.950;11.014;2023-03-22T04:16:11;98060.63;;;0.27;85.92
62864;BME280;48954;59.950;11.014;2023-03-22T04:18:38;98058.81;;;0.25;85.92
62864;BME280;48954;59.950;11.014;2023-03-22T04:21:04;98054.64;;;0.23;85.77
62864;BME280;48954;59.950;11.014;2023-03-22T04:23:30;98049.21;;;0.23;85.83
62864;BME280;48954;59.950;11.014;2023-03-22T04:25:56;98042.88;;;0.23;85.99
62864;BME280;48954;59.950;11.014;2023-03-22T04:28:22;98043.75;;;0.23;86.00
62864;BME280;48954;59.950;11.014;2023-03-22T04:30:48;98042.77;;;0.24;86.01
62864;BME280;48954;59.950;11.014;2023-03-22T04:33:15;98043.42;;;0.25;85.91
62864;BME280;48954;59.950;11.014;2023-03-22T04:35:42;98033.05;;;0.24;85.87
62864;BME280;48954;59.950;11.014;2023-03-22T04:38:08;98030.20;;;0.24;85.87
62864;BME280;48954;59.950;11.014;2023-03-22T04:40:34;98030.53;;;0.25;86.03
62864;BME280;48954;59.950;11.014;2023-03-22T04:43:00;98028.91;;;0.25;85.96
62864;BME280;48954;59.950;11.014;2023-03-22T04:45:27;98024.67;;;0.26;86.01
62864;BME280;48954;59.950;11.014;2023-03-22T04:47:53;98024.98;;;0.26;85.63
62864;BME280;48954;59.950;11.014;2023-03-22T04:50:19;98024.02;;;0.27;86.01
62864;BME280;48954;59.950;11.014;2023-03-22T04:52:45;98022.78;;;0.27;85.94
62864;BME280;48954;59.950;11.014;2023-03-22T04:55:11;98018.34;;;0.28;86.00
62864;BME280;48954;59.950;11.014;2023-03-22T04:57:36;98020.37;;;0.29;85.91
62864;BME280;48954;59.950;11.014;2023-03-22T05:00:03;98021.36;;;0.29;86.25
62864;BME280;48954;59.950;11.014;2023-03-22T05:02:29;98015.63;;;0.28;86.04
62864;BME280;48954;59.950;11.014;2023-03-22T05:04:55;98016.58;;;0.29;86.08
62864;BME280;48954;59.950;11.014;2023-03-22T05:07:21;98012.57;;;0.29;85.98
62864;BME280;48954;59.950;11.014;2023-03-22T05:09:48;98010.72;;;0.29;86.06
62864;BME280;48954;59.950;11.014;2023-03-22T05:12:14;98012.31;;;0.30;85.73
62864;BME280;48954;59.950;11.014;2023-03-22T05:14:39;98009.41;;;0.31;86.23
62864;BME280;48954;59.950;11.014;2023-03-22T05:17:05;98002.85;;;0.32;86.25
62864;BME280;48954;59.950;11.014;2023-03-22T05:19:31;98006.42;;;0.34;86.24
62864;BME280;48954;59.950;11.014;2023-03-22T05:21:57;98003.34;;;0.34;86.12
62864;BME280;48954;59.950;11.014;2023-03-22T05:24:23;98004.35;;;0.34;85.99
62864;BME280;48954;59.950;11.014;2023-03-22T05:26:49;97997.58;;;0.35;86.37
62864;BME280;48954;59.950;11.014;2023-03-22T05:29:15;97987.45;;;0.35;86.28
62864;BME280;48954;59.950;11.014;2023-03-22T05:31:41;97989.25;;;0.36;86.30
62864;BME280;48954;59.950;11.014;2023-03-22T05:34:06;97985.83;;;0.35;86.34
62864;BME280;48954;59.950;11.014;2023-03-22T05:36:33;97985.92;;;0.38;86.16
62864;BME280;48954;59.950;11.014;2023-03-22T05:38:59;97988.13;;;0.40;86.36
62864;BME280;48954;59.950;11.014;2023-03-22T05:41:24;97979.98;;;0.41;86.03
62864;BME280;48954;59.950;11.014;2023-03-22T05:43:51;97980.94;;;0.42;86.05
62864;BME280;48954;59.950;11.014;2023-03-22T05:46:17;97983.61;;;0.42;86.16
62864;BME280;48954;59.950;11.014;2023-03-22T05:48:42;97978.16;;;0.42;85.89
62864;BME280;48954;59.950;11.014;2023-03-22T05:51:11;97977.43;;;0.43;85.81
62864;BME280;48954;59.950;11.014;2023-03-22T05:53:37;97984.61;;;0.43;86.03
62864;BME280;48954;59.950;11.014;2023-03-22T05:56:04;97982.73;;;0.45;86.13
62864;BME280;48954;59.950;11.014;2023-03-22T05:58:30;97978.23;;;0.46;86.24
62864;BME280;48954;59.950;11.014;2023-03-22T06:00:57;97978.91;;;0.48;86.40
62864;BME280;48954;59.950;11.014;2023-03-22T06:03:23;97984.04;;;0.51;86.20
62864;BME280;48954;59.950;11.014;2023-03-22T06:05:49;97981.29;;;0.53;86.30
62864;BME280;48954;59.950;11.014;2023-03-22T06:08:15;97978.34;;;0.54;86.15
62864;BME280;48954;59.950;11.014;2023-03-22T06:10:41;97970.19;;;0.55;86.28
62864;BME280;48954;59.950;11.014;2023-03-22T06:13:08;97965.98;;;0.57;86.37
62864;BME280;48954;59.950;11.014;2023-03-22T06:15:34;97964.24;;;0.60;86.35
62864;BME280;48954;59.950;11.014;2023-03-22T06:18:00;97963.04;;;0.63;86.03
62864;BME280;48954;59.950;11.014;2023-03-22T06:20:26;97959.41;;;0.67;86.15
62864;BME280;48954;59.950;11.014;2023-03-22T06:22:52;97954.41;;;0.69;86.25
62864;BME280;48954;59.950;11.014;2023-03-22T06:25:24;97945.33;;;0.73;86.04
62864;BME280;48954;59.950;11.014;2023-03-22T06:27:51;97935.73;;;0.75;86.09
62864;BME280;48954;59.950;11.014;2023-03-22T06:30:16;97945.61;;;0.77;86.05
62864;BME280;48954;59.950;11.014;2023-03-22T06:32:44;97953.14;;;0.78;86.05
62864;BME280;48954;59.950;11.014;2023-03-22T06:35:10;97956.39;;;0.79;86.01
62864;BME280;48954;59.950;11.014;2023-03-22T06:37:36;97958.21;;;0.80;85.94
62864;BME280;48954;59.950;11.014;2023-03-22T06:40:03;97957.07;;;0.83;85.98
62864;BME280;48954;59.950;11.014;2023-03-22T06:42:30;97956.25;;;0.86;86.17
62864;BME280;48954;59.950;11.014;2023-03-22T06:44:56;97954.83;;;0.90;85.99
62864;BME280;48954;59.950;11.014;2023-03-22T06:47:22;97957.15;;;0.93;85.87
62864;BME280;48954;59.950;11.014;2023-03-22T06:49:49;97950.68;;;0.98;86.25
62864;BME280;48954;59.950;11.014;2023-03-22T06:52:15;97956.67;;;1.05;86.10
62864;BME280;48954;59.950;11.014;2023-03-22T06:54:41;97957.85;;;1.07;86.07
62864;BME280;48954;59.950;11.014;2023-03-22T06:57:07;97950.63;;;1.12;86.16
62864;BME280;48954;59.950;11.014;2023-03-22T06:59:33;97946.83;;;1.17;86.06
62864;BME280;48954;59.950;11.014;2023-03-22T07:01:59;97943.49;;;1.22;86.15
62864;BME280;48954;59.950;11.014;2023-03-22T07:04:25;97943.56;;;1.26;86.29
62864;BME280;48954;59.950;11.014;2023-03-22T07:07:05;97945.24;;;1.31;86.19
62864;BME280;48954;59.950;11.014;2023-03-22T07:09:31;97952.70;;;1.34;86.17
62864;BME280;48954;59.950;11.014;2023-03-22T07:11:57;97947.98;;;1.39;86.28
62864;BME280;48954;59.950;11.014;2023-03-22T07:14:23;97947.39;;;1.44;86.35
62864;BME280;48954;59.950;11.014;2023-03-22T07:16:49;97944.49;;;1.48;86.07
62864;BME280;48954;59.950;11.014;2023-03-22T07:19:16;97942.08;;;1.50;85.92
62864;BME280;48954;59.950;11.014;2023-03-22T07:21:42;97941.23;;;1.47;85.65
62864;BME280;48954;59.950;11.014;2023-03-22T07:24:09;97937.00;;;1.43;85.66
62864;BME280;48954;59.950;11.014;2023-03-22T07:26:37;97938.00;;;1.42;85.64
62864;BME280;48954;59.950;11.014;2023-03-22T07:29:04;97938.63;;;1.43;85.63
62864;BME280;48954;59.950;11.014;2023-03-22T07:31:37;97933.20;;;1.43;85.50
62864;BME280;48954;59.950;11.014;2023-03-22T07:34:04;97931.05;;;1.43;85.45
62864;BME280;48954;59.950;11.014;2023-03-22T07:36:31;97925.60;;;1.45;85.54
62864;BME280;48954;59.950;11.014;2023-03-22T07:39:00;97930.70;;;1.48;85.46
62864;BME280;48954;59.950;11.014;2023-03-22T07:41:27;97930.27;;;1.54;85.52
62864;BME280;48954;59.950;11.014;2023-03-22T07:43:53;97928.16;;;1.59;85.59
62864;BME280;48954;59.950;11.014;2023-03-22T07:46:19;97929.30;;;1.63;85.49
62864;BME280;48954;59.950;11.014;2023-03-22T07:48:45;97926.23;;;1.66;85.56
62864;BME280;48954;59.950;11.014;2023-03-22T07:51:11;97921.73;;;1.70;85.66
62864;BME280;48954;59.950;11.014;2023-03-22T07:53:38;97924.77;;;1.73;85.56
62864;BME280;48954;59.950;11.014;2023-03-22T07:56:04;97925.65;;;1.74;85.48
62864;BME280;48954;59.950;11.014;2023-03-22T07:58:33;97922.92;;;1.76;85.60
62864;BME280;48954;59.950;11.014;2023-03-22T08:01:04;97920.84;;;1.79;85.51
62864;BME280;48954;59.950;11.014;2023-03-22T08:03:31;97912.29;;;1.81;85.59
62864;BME280;48954;59.950;11.014;2023-03-22T08:05:59;97901.80;;;1.83;85.53
62864;BME280;48954;59.950;11.014;2023-03-22T08:08:25;97889.94;;;1.86;85.64
62864;BME280;48954;59.950;11.014;2023-03-22T08:10:51;97891.13;;;1.86;85.62
62864;BME280;48954;59.950;11.014;2023-03-22T08:13:17;97886.55;;;1.86;85.58
62864;BME280;48954;59.950;11.014;2023-03-22T08:15:43;97889.34;;;1.89;85.60
62864;BME280;48954;59.950;11.014;2023-03-22T08:18:09;97889.84;;;1.91;85.57
62864;BME280;48954;59.950;11.014;2023-03-22T08:20:35;97879.61;;;1.93;85.70
62864;BME280;48954;59.950;11.014;2023-03-22T08:23:01;97878.60;;;1.96;85.56
62864;BME280;48954;59.950;11.014;2023-03-22T08:25:27;97876.23;;;2.00;85.72
62864;BME280;48954;59.950;11.014;2023-03-22T08:27:53;97871.20;;;2.06;85.74
62864;BME280;48954;59.950;11.014;2023-03-22T08:30:19;97862.92;;;2.10;86.03
62864;BME280;48954;59.950;11.014;2023-03-22T08:32:44;97859.59;;;2.16;86.07
62864;BME280;48954;59.950;11.014;2023-03-22T08:35:11;97853.35;;;2.21;86.16
62864;BME280;48954;59.950;11.014;2023-03-22T08:37:37;97851.02;;;2.27;86.14
62864;BME280;48954;59.950;11.014;2023-03-22T08:40:03;97843.55;;;2.32;86.22
62864;BME280;48954;59.950;11.014;2023-03-22T08:42:29;97837.65;;;2.38;86.09
62864;BME280;48954;59.950;11.014;2023-03-22T08:44:55;97830.58;;;2.44;86.24
62864;BME280;48954;59.950;11.014;2023-03-22T08:47:21;97827.54;;;2.50;86.23
62864;BME280;48954;59.950;11.014;2023-03-22T08:49:47;97830.17;;;2.57;86.29
62864;BME280;48954;59.950;11.014;2023-03-22T08:52:12;97831.94;;;2.60;86.22
62864;BME280;48954;59.950;11.014;2023-03-22T08:54:39;97830.96;;;2.62;86.14
62864;BME280;48954;59.950;11.014;2023-03-22T08:57:04;97829.52;;;2.63;86.18
62864;BME280;48954;59.950;11.014;2023-03-22T08:59:30;97827.84;;;2.63;86.23
62864;BME280;48954;59.950;11.014;2023-03-22T09:01:56;97825.61;;;2.68;86.30
62864;BME280;48954;59.950;11.014;2023-03-22T09:04:23;97827.55;;;2.71;86.44
62864;BME280;48954;59.950;11.014;2023-03-22T09:06:49;97828.88;;;2.71;86.34
62864;BME280;48954;59.950;11.014;2023-03-22T09:09:15;97826.80;;;2.72;86.32
62864;BME280;48954;59.950;11.014;2023-03-22T09:11:41;97819.24;;;2.74;86.49
62864;BME280;48954;59.950;11.014;2023-03-22T09:14:08;97811.05;;;2.76;86.46
62864;BME280;48954;59.950;11.014;2023-03-22T09:16:35;97807.10;;;2.79;86.43
62864;BME280;48954;59.950;11.014;2023-03-22T09:19:01;97808.92;;;2.85;86.52
62864;BME280;48954;59.950;11.014;2023-03-22T09:21:28;97806.59;;;2.88;86.41
62864;BME280;48954;59.950;11.014;2023-03-22T09:23:54;97797.08;;;2.94;86.47
62864;BME280;48954;59.950;11.014;2023-03-22T09:26:20;97791.48;;;3.01;86.39
62864;BME280;48954;59.950;11.014;2023-03-22T09:28:46;97786.20;;;3.08;86.21
62864;BME280;48954;59.950;11.014;2023-03-22T09:31:12;97775.16;;;3.15;86.24
62864;BME280;48954;59.950;11.014;2023-03-22T09:33:38;97772.91;;;3.22;86.29
62864;BME280;48954;59.950;11.014;2023-03-22T09:36:05;97772.64;;;3.29;86.13
62864;BME280;48954;59.950;11.014;2023-03-22T09:38:31;97771.10;;;3.33;86.14
62864;BME280;48954;59.950;11.014;2023-03-22T09:41:05;97773.89;;;3.37;86.05
62864;BME280;48954;59.950;11.014;2023-03-22T09:43:56;97766.65;;;3.41;86.06
62864;BME280;48954;59.950;11.014;2023-03-22T09:48:58;97768.77;;;3.42;85.96
62864;BME280;48954;59.950;11.014;2023-03-22T09:51:38;97768.17;;;3.43;85.97
62864;BME280;48954;59.950;11.014;2023-03-22T09:54:32;97770.52;;;3.44;86.11
62864;BME280;48954;59.950;11.014;2023-03-22T09:57:04;97769.45;;;3.41;86.08
62864;BME280;48954;59.950;11.014;2023-03-22T09:59:43;97769.59;;;3.40;86.04
62864;BME280;48954;59.950;11.014;2023-03-22T10:02:30;97771.18;;;3.38;86.03
62864;BME280;48954;59.950;11.014;2023-03-22T10:08:19;97760.20;;;3.36;86.10
62864;BME280;48954;59.950;11.014;2023-03-22T10:10:48;97755.40;;;3.36;86.30
62864;BME280;48954;59.950;11.014;2023-03-22T10:15:49;97746.33;;;3.37;86.13
62864;BME280;48954;59.950;11.014;2023-03-22T10:18:22;97743.15;;;3.38;86.25
62864;BME280;48954;59.950;11.014;2023-03-22T10:23:44;97730.67;;;3.43;86.22
62864;BME280;48954;59.950;11.014;2023-03-22T10:26:26;97725.50;;;3.44;86.24
62864;BME280;48954;59.950;11.014;2023-03-22T10:29:36;97720.04;;;3.47;86.25
62864;BME280;48954;59.950;11.014;2023-03-22T10:32:14;97712.55;;;3.50;86.37
62864;BME280;48954;59.950;11.014;2023-03-22T10:34:41;97707.19;;;3.55;86.41
62864;BME280;48954;59.950;11.014;2023-03-22T10:37:13;97708.56;;;3.58;86.49
62864;BME280;48954;59.950;11.014;2023-03-22T10:39:43;97706.84;;;3.61;86.65
62864;BME280;48954;59.950;11.014;2023-03-22T10:42:12;97706.97;;;3.65;86.56
62864;BME280;48954;59.950;11.014;2023-03-22T10:44:59;97703.44;;;3.67;86.57
62864;BME280;48954;59.950;11.014;2023-03-22T10:47:34;97703.88;;;3.70;86.57
62864;BME280;48954;59.950;11.014;2023-03-22T10:50:06;97698.48;;;3.73;86.65
62864;BME280;48954;59.950;11.014;2023-03-22T10:52:54;97700.33;;;3.76;86.66
62864;BME280;48954;59.950;11.014;2023-03-22T10:55:23;97692.20;;;3.79;86.62
62864;BME280;48954;59.950;11.014;2023-03-22T10:58:17;97689.92;;;3.82;86.67
62864;BME280;48954;59.950;11.014;2023-03-22T11:00:48;97688.90;;;3.85;86.69
62864;BME280;48954;59.950;11.014;2023-03-22T11:06:02;97683.33;;;3.82;86.12
62864;BME280;48954;59.950;11.014;2023-03-22T11:08:40;97677.15;;;3.80;86.11
62864;BME280;48954;59.950;11.014;2023-03-22T11:11:16;97668.19;;;3.78;85.78
62864;BME280;48954;59.950;11.014;2023-03-22T11:13:48;97661.33;;;3.76;85.81
62864;BME280;48954;59.950;11.014;2023-03-22T11:16:16;97658.11;;;3.74;85.71
62864;BME280;48954;59.950;11.014;2023-03-22T11:18:42;97652.22;;;3.74;85.68
62864;BME280;48954;59.950;11.014;2023-03-22T11:21:09;97644.15;;;3.75;85.66
62864;BME280;48954;59.950;11.014;2023-03-22T11:23:40;97641.83;;;3.77;85.75
62864;BME280;48954;59.950;11.014;2023-03-22T11:26:12;97637.27;;;3.78;85.63
62864;BME280;48954;59.950;11.014;2023-03-22T11:28:45;97634.08;;;3.78;85.67
62864;BME280;48954;59.950;11.014;2023-03-22T11:31:14;97629.77;;;3.81;85.60
62864;BME280;48954;59.950;11.014;2023-03-22T11:33:54;97625.79;;;3.84;85.73
62864;BME280;48954;59.950;11.014;2023-03-22T11:36:21;97622.39;;;3.85;85.77
62864;BME280;48954;59.950;11.014;2023-03-22T11:38:46;97621.23;;;3.86;85.71
62864;BME280;48954;59.950;11.014;2023-03-22T11:41:20;97616.06;;;3.89;85.84
62864;BME280;48954;59.950;11.014;2023-03-22T11:43:51;97607.47;;;3.91;85.82
62864;BME280;48954;59.950;11.014;2023-03-22T11:46:17;97599.63;;;3.92;85.68
62864;BME280;48954;59.950;11.014;2023-03-22T11:48:45;97593.38;;;3.94;85.74
62864;BME280;48954;59.950;11.014;2023-03-22T11:51:16;97598.45;;;3.97;85.81
62864;BME280;48954;59.950;11.014;2023-03-22T11:53:44;97597.70;;;3.97;85.92
62864;BME280;48954;59.950;11.014;2023-03-22T11:56:16;97596.17;;;3.99;85.88
62864;BME280;48954;59.950;11.014;2023-03-22T12:01:20;97582.50;;;4.00;85.81
62864;BME280;48954;59.950;11.014;2023-03-22T12:03:51;97578.50;;;4.04;85.82
62864;BME280;48954;59.950;11.014;2023-03-22T12:06:36;97574.27;;;4.07;85.81
62864;BME280;48954;59.950;11.014;2023-03-22T12:11:49;97560.36;;;4.20;86.51
62864;BME280;48954;59.950;11.014;2023-03-22T12:14:25;97553.27;;;4.31;86.83
62864;BME280;48954;59.950;11.014;2023-03-22T12:16:57;97549.59;;;4.42;87.00
62864;BME280;48954;59.950;11.014;2023-03-22T12:19:42;97540.30;;;4.55;87.45
62864;BME280;48954;59.950;11.014;2023-03-22T12:22:31;97535.70;;;4.68;87.67
62864;BME280;48954;59.950;11.014;2023-03-22T12:24:58;97523.14;;;4.81;87.56
62864;BME280;48954;59.950;11.014;2023-03-22T12:27:36;97519.02;;;4.89;87.41
62864;BME280;48954;59.950;11.014;2023-03-22T12:30:10;97516.73;;;4.96;87.41
62864;BME280;48954;59.950;11.014;2023-03-22T12:32:44;97512.58;;;5.01;87.47
62864;BME280;48954;59.950;11.014;2023-03-22T12:35:18;97509.97;;;5.04;87.52
62864;BME280;48954;59.950;11.014;2023-03-22T12:37:50;97502.11;;;5.06;87.45
62864;BME280;48954;59.950;11.014;2023-03-22T12:40:35;97494.73;;;5.09;87.25
62864;BME280;48954;59.950;11.014;2023-03-22T12:45:42;97474.25;;;5.16;87.29
62864;BME280;48954;59.950;11.014;2023-03-22T12:48:19;97470.21;;;5.18;87.37
62864;BME280;48954;59.950;11.014;2023-03-22T12:50:56;97462.04;;;5.19;87.24
62864;BME280;48954;59.950;11.014;2023-03-22T12:53:27;97454.73;;;5.21;87.31
62864;BME280;48954;59.950;11.014;2023-03-22T12:55:55;97455.66;;;5.22;87.36
62864;BME280;48954;59.950;11.014;2023-03-22T12:58:22;97452.30;;;5.22;87.26
62864;BME280;48954;59.950;11.014;2023-03-22T13:01:44;97454.09;;;5.20;87.12
62864;BME280;48954;59.950;11.014;2023-03-22T13:03:47;97447.94;;;5.17;87.27
62864;BME280;48954;59.950;11.014;2023-03-22T13:09:13;97438.32;;;5.13;87.41
62864;BME280;48954;59.950;11.014;2023-03-22T13:11:39;97431.00;;;5.12;87.41
62864;BME280;48954;59.950;11.014;2023-03-22T13:14:05;97419.70;;;5.11;87.36
62864;BME280;48954;59.950;11.014;2023-03-22T13:16:47;97416.66;;;5.11;87.32
62864;BME280;48954;59.950;11.014;2023-03-22T13:19:35;97415.32;;;5.08;87.30
62864;BME280;48954;59.950;11.014;2023-03-22T13:22:28;97411.04;;;5.05;87.22
62864;BME280;48954;59.950;11.014;2023-03-22T13:25:00;97406.67;;;5.04;87.17
62864;BME280;48954;59.950;11.014;2023-03-22T13:27:39;97403.39;;;5.03;87.16
62864;BME280;48954;59.950;11.014;2023-03-22T13:32:54;97396.84;;;5.01;87.35
62864;BME280;48954;59.950;11.014;2023-03-22T13:37:50;97387.24;;;4.98;87.41
62864;BME280;48954;59.950;11.014;2023-03-22T13:40:36;97382.08;;;4.96;87.34
62864;BME280;48954;59.950;11.014;2023-03-22T13:46:03;97371.40;;;4.91;87.30
62864;BME280;48954;59.950;11.014;2023-03-22T13:59:12;97329.78;;;4.79;87.60
62864;BME280;48954;59.950;11.014;2023-03-22T14:01:44;97324.71;;;4.77;87.59
62864;BME280;48954;59.950;11.014;2023-03-22T14:04:36;97318.23;;;4.75;87.64
62864;BME280;48954;59.950;11.014;2023-03-22T14:07:17;97311.55;;;4.75;87.63
62864;BME280;48954;59.950;11.014;2023-03-22T14:12:38;97298.57;;;4.77;87.98
62864;BME280;48954;59.950;11.014;2023-03-22T14:15:32;97296.31;;;4.77;87.89
62864;BME280;48954;59.950;11.014;2023-03-22T14:18:30;97286.58;;;4.76;87.90
62864;BME280;48954;59.950;11.014;2023-03-22T14:21:04;97282.60;;;4.75;87.89
62864;BME280;48954;59.950;11.014;2023-03-22T14:23:36;97282.92;;;4.75;88.05
62864;BME280;48954;59.950;11.014;2023-03-22T14:26:26;97272.65;;;4.75;88.16
62864;BME280;48954;59.950;11.014;2023-03-22T14:29:05;97271.16;;;4.75;87.98
62864;BME280;48954;59.950;11.014;2023-03-22T14:31:31;97263.61;;;4.74;88.08